createdAt,value
2023-01-13T00:00:39.031Z,5.23
2023-01-13T00:03:06.332Z,8.53
2023-01-13T00:05:33.408Z,5.03
2023-01-13T00:08:00.547Z,9.23
2023-01-13T00:10:27.657Z,8.87
2023-01-13T00:12:54.757Z,6.83
2023-01-13T00:15:21.913Z,7.03
2023-01-13T00:17:49.048Z,8.47
2023-01-13T00:20:16.403Z,7.17
2023-01-13T00:22:43.498Z,7.27
2023-01-13T00:25:10.626Z,7.50
2023-01-13T00:27:37.749Z,6.80
2023-01-13T00:30:05.559Z,4.73
2023-01-13T00:32:32.803Z,6.53
2023-01-13T00:34:59.925Z,5.63
2023-01-13T00:37:27.059Z,5.77
2023-01-13T00:39:54.225Z,6.73
2023-01-13T00:42:39.948Z,6.77
2023-01-13T00:45:07.372Z,5.20
2023-01-13T00:47:34.526Z,8.33
2023-01-13T00:50:01.595Z,6.10
2023-01-13T00:52:28.779Z,8.40
2023-01-13T00:54:55.821Z,6.33
2023-01-13T00:57:22.889Z,6.47
2023-01-13T00:59:50.111Z,6.33
2023-01-13T01:02:17.282Z,4.93
2023-01-13T01:04:44.458Z,3.83
2023-01-13T01:07:11.498Z,3.23
2023-01-13T01:09:39.393Z,5.83
2023-01-13T01:12:06.558Z,3.93
2023-01-13T01:14:33.694Z,8.07
2023-01-13T01:17:00.792Z,4.83
2023-01-13T01:19:27.883Z,4.47
2023-01-13T01:21:54.976Z,5.33
2023-01-13T01:24:22.067Z,4.60
2023-01-13T01:26:49.106Z,3.17
2023-01-13T01:29:16.253Z,4.93
2023-01-13T01:31:43.747Z,4.73
2023-01-13T01:34:10.918Z,3.73
2023-01-13T01:36:38.106Z,3.30
2023-01-13T01:39:06.696Z,4.17
2023-01-13T01:41:35.100Z,3.43
2023-01-13T01:44:08.380Z,3.97
2023-01-13T01:46:39.675Z,5.60
2023-01-13T01:49:09.903Z,4.33
2023-01-13T01:51:43.145Z,4.63
2023-01-13T01:54:11.857Z,2.40
2023-01-13T01:56:39.411Z,4.00
2023-01-13T01:59:06.536Z,2.83
2023-01-13T02:01:34.677Z,3.77
2023-01-13T02:04:05.293Z,3.57
2023-01-13T02:06:32.573Z,4.73
2023-01-13T02:09:00.461Z,5.80
2023-01-13T02:11:47.038Z,5.33
2023-01-13T02:14:14.143Z,5.60
2023-01-13T02:16:45.718Z,4.93
2023-01-13T02:19:25.266Z,3.90
2023-01-13T02:22:04.980Z,4.50
2023-01-13T02:24:54.644Z,5.27
2023-01-13T02:27:27.628Z,4.33
2023-01-13T02:30:13.458Z,7.67
2023-01-13T02:32:46.805Z,5.03
2023-01-13T02:35:26.197Z,2.53
2023-01-13T02:37:54.661Z,6.03
2023-01-13T02:40:25.845Z,6.47
2023-01-13T02:43:15.554Z,5.77
2023-01-13T02:45:45.374Z,2.90
2023-01-13T02:48:14.753Z,3.20
2023-01-13T02:50:45.045Z,2.87
2023-01-13T02:53:23.762Z,3.17
2023-01-13T02:55:52.257Z,4.97
2023-01-13T02:58:20.648Z,5.07
2023-01-13T03:00:49.638Z,3.77
2023-01-13T03:03:16.835Z,4.47
2023-01-13T03:05:45.570Z,2.77
2023-01-13T03:08:31.224Z,3.60
2023-01-13T03:10:58.319Z,3.63
2023-01-13T03:13:25.432Z,4.40
2023-01-13T03:15:55.558Z,3.80
2023-01-13T03:18:33.080Z,4.13
2023-01-13T03:21:20.789Z,1.23
2023-01-13T03:23:58.695Z,2.43
2023-01-13T03:26:32.010Z,3.83
2023-01-13T03:29:06.039Z,3.73
2023-01-13T03:31:35.757Z,2.13
2023-01-13T03:34:05.379Z,2.83
2023-01-13T03:36:33.154Z,5.33
2023-01-13T03:39:03.099Z,1.43
2023-01-13T03:41:36.015Z,1.93
2023-01-13T03:44:24.461Z,3.47
2023-01-13T03:46:57.574Z,2.63
2023-01-13T03:49:27.462Z,3.43
2023-01-13T03:51:59.391Z,2.90
2023-01-13T03:54:29.016Z,4.43
2023-01-13T03:56:57.992Z,1.87
2023-01-13T03:59:27.712Z,2.40
2023-01-13T04:02:13.564Z,3.30
2023-01-13T04:04:40.692Z,2.40
2023-01-13T04:07:16.568Z,2.43
2023-01-13T04:09:50.904Z,3.30
2023-01-13T04:12:21.133Z,1.37
2023-01-13T04:14:48.419Z,2.23
2023-01-13T04:17:16.417Z,2.03
2023-01-13T04:19:43.581Z,2.93
2023-01-13T04:22:10.793Z,2.33
2023-01-13T04:24:37.930Z,2.17
2023-01-13T04:27:06.198Z,2.03
2023-01-13T04:29:33.375Z,1.97
2023-01-13T04:32:00.481Z,2.27
2023-01-13T04:34:28.492Z,3.00
2023-01-13T04:36:55.780Z,3.13
2023-01-13T04:39:22.937Z,2.17
2023-01-13T04:41:59.388Z,2.17
2023-01-13T04:44:26.966Z,2.27
2023-01-13T04:46:54.283Z,1.70
2023-01-13T04:49:21.457Z,5.27
2023-01-13T04:51:48.708Z,3.83
2023-01-13T04:54:16.287Z,2.37
2023-01-13T04:56:43.447Z,2.67
2023-01-13T04:59:11.756Z,1.43
2023-01-13T05:01:39.243Z,2.47
2023-01-13T05:04:07.057Z,1.23
2023-01-13T05:06:34.368Z,3.10
2023-01-13T05:09:01.536Z,1.97
2023-01-13T05:11:47.264Z,3.57
2023-01-13T05:14:33.163Z,0.60
2023-01-13T05:17:00.366Z,5.50
2023-01-13T05:19:31.651Z,1.87
2023-01-13T05:22:17.755Z,0.90
2023-01-13T05:25:03.651Z,4.90
2023-01-13T05:27:31.099Z,3.50
2023-01-13T05:29:58.625Z,3.17
2023-01-13T05:32:28.035Z,5.87
2023-01-13T05:34:55.926Z,3.93
2023-01-13T05:37:23.772Z,3.53
2023-01-13T05:40:09.387Z,2.47
2023-01-13T05:42:55.441Z,1.77
2023-01-13T05:45:22.607Z,3.03
2023-01-13T05:47:49.788Z,2.43
2023-01-13T05:50:17.256Z,3.57
2023-01-13T05:52:44.618Z,1.00
2023-01-13T05:55:12.261Z,3.57
2023-01-13T05:57:39.425Z,3.20
2023-01-13T06:00:07.086Z,1.47
2023-01-13T06:02:34.268Z,4.10
2023-01-13T06:05:01.426Z,4.43
2023-01-13T06:07:28.556Z,2.67
2023-01-13T06:09:55.657Z,2.80
2023-01-13T06:12:22.834Z,3.38
2023-01-13T06:14:50.013Z,3.10
2023-01-13T06:17:17.202Z,4.83
2023-01-13T06:19:44.354Z,3.20
2023-01-13T06:22:13.851Z,3.43
2023-01-13T06:24:41.022Z,2.77
2023-01-13T06:27:09.488Z,2.50
2023-01-13T06:29:36.679Z,7.13
2023-01-13T06:32:06.040Z,2.97
2023-01-13T06:34:34.406Z,3.13
2023-01-13T06:37:02.477Z,7.17
2023-01-13T06:39:31.181Z,3.77
2023-01-13T06:42:17.409Z,1.93
2023-01-13T06:44:46.049Z,1.53
2023-01-13T06:47:13.349Z,3.30
2023-01-13T06:49:40.480Z,1.63
2023-01-13T06:52:07.628Z,6.13
2023-01-13T06:54:34.818Z,3.10
2023-01-13T06:57:02.614Z,3.27
2023-01-13T06:59:30.159Z,3.47
2023-01-13T07:01:57.890Z,5.13
2023-01-13T07:04:25.163Z,2.20
2023-01-13T07:06:52.311Z,2.53
2023-01-13T07:09:19.424Z,4.57
2023-01-13T07:11:46.811Z,2.37
2023-01-13T07:14:32.496Z,1.47
2023-01-13T07:16:59.623Z,3.27
2023-01-13T07:19:26.792Z,2.60
2023-01-13T07:21:54.077Z,3.80
2023-01-13T07:24:22.472Z,3.50
2023-01-13T07:26:51.319Z,2.27
2023-01-13T07:29:18.447Z,3.13
2023-01-13T07:31:46.791Z,2.17
2023-01-13T07:34:15.471Z,2.70
2023-01-13T07:36:42.600Z,3.03
2023-01-13T07:39:09.752Z,1.30
2023-01-13T07:41:55.650Z,3.77
2023-01-13T07:44:22.788Z,2.40
2023-01-13T07:46:49.940Z,1.53
2023-01-13T07:49:17.056Z,2.03
2023-01-13T07:51:44.210Z,2.93
2023-01-13T07:54:11.375Z,4.23
2023-01-13T07:56:38.499Z,5.13
2023-01-13T07:59:05.706Z,2.10
2023-01-13T08:01:32.987Z,1.97
2023-01-13T08:04:00.248Z,1.33
2023-01-13T08:06:27.587Z,1.30
2023-01-13T08:08:54.781Z,1.60
2023-01-13T08:11:23.588Z,1.77
2023-01-13T08:13:50.914Z,2.33
2023-01-13T08:16:18.105Z,1.87
2023-01-13T08:18:45.292Z,1.43
2023-01-13T08:21:13.869Z,5.07
2023-01-13T08:23:41.870Z,2.80
2023-01-13T08:26:13.755Z,2.43
2023-01-13T08:28:41.069Z,2.30
2023-01-13T08:31:09.656Z,2.63
2023-01-13T08:33:37.610Z,3.10
2023-01-13T08:36:06.499Z,3.23
2023-01-13T08:38:34.565Z,2.50
2023-01-13T08:41:02.154Z,4.03
2023-01-13T08:43:29.323Z,3.67
2023-01-13T08:46:00.838Z,1.70
2023-01-13T08:48:31.442Z,3.77
2023-01-13T08:51:07.256Z,2.23
2023-01-13T08:53:34.430Z,4.30
2023-01-13T08:56:01.652Z,3.63
2023-01-13T08:58:28.867Z,3.20
2023-01-13T09:00:56.084Z,1.80
2023-01-13T09:03:23.307Z,2.63
2023-01-13T09:05:50.509Z,1.77
2023-01-13T09:08:17.630Z,4.23
2023-01-13T09:10:45.843Z,3.13
2023-01-13T09:13:13.796Z,5.13
2023-01-13T09:15:41.843Z,3.90
2023-01-13T09:18:09.476Z,2.07
2023-01-13T09:20:36.675Z,4.07
2023-01-13T09:23:04.140Z,5.40
2023-01-13T09:25:31.769Z,3.37
2023-01-13T09:27:58.946Z,1.90
2023-01-13T09:30:26.116Z,3.23
2023-01-13T09:33:13.196Z,1.97
2023-01-13T09:35:40.340Z,3.20
2023-01-13T09:38:07.733Z,3.20
2023-01-13T09:40:36.124Z,2.80
2023-01-13T09:43:44.951Z,2.70
2023-01-13T09:46:37.007Z,1.93
2023-01-13T09:49:04.182Z,2.17
2023-01-13T09:51:34.654Z,4.80
2023-01-13T09:54:12.420Z,5.00
2023-01-13T09:56:39.631Z,2.90
2023-01-13T09:59:09.505Z,4.63
2023-01-13T10:01:42.535Z,9.63
2023-01-13T10:04:13.684Z,5.53
2023-01-13T10:06:43.388Z,5.70
2023-01-13T10:09:15.917Z,2.80
2023-01-13T10:12:08.529Z,3.30
2023-01-13T10:14:41.223Z,5.57
2023-01-13T10:17:08.354Z,6.20
2023-01-13T10:19:39.645Z,3.07
2023-01-13T10:22:30.096Z,4.90
2023-01-13T10:25:07.593Z,8.30
2023-01-13T10:27:39.113Z,3.97
2023-01-13T10:30:12.320Z,1.93
2023-01-13T10:32:39.549Z,7.07
2023-01-13T10:35:06.951Z,5.97
2023-01-13T10:37:34.090Z,5.87
2023-01-13T10:40:03.049Z,1.97
2023-01-13T10:42:30.223Z,3.87
2023-01-13T10:44:58.380Z,4.60
2023-01-13T10:47:27.211Z,4.53
2023-01-13T10:50:09.831Z,5.47
2023-01-13T10:52:40.746Z,6.23
2023-01-13T10:55:25.534Z,5.93
2023-01-13T10:57:52.751Z,5.83
2023-01-13T11:00:30.118Z,5.30
2023-01-13T11:03:23.619Z,4.47
2023-01-13T11:05:55.467Z,9.50
2023-01-13T11:08:24.349Z,6.87
2023-01-13T11:10:53.286Z,4.07
2023-01-13T11:13:26.212Z,5.60
2023-01-13T11:15:54.856Z,7.63
2023-01-13T11:19:12.126Z,7.23
2023-01-13T11:21:39.357Z,5.40
2023-01-13T11:24:11.380Z,7.07
2023-01-13T11:26:42.014Z,8.70
2023-01-13T11:29:13.748Z,5.63
2023-01-13T11:31:43.855Z,5.07
2023-01-13T11:34:23.232Z,7.40
2023-01-13T11:36:52.198Z,4.67
2023-01-13T11:39:21.933Z,7.87
2023-01-13T11:42:12.950Z,6.43
2023-01-13T11:44:43.872Z,7.70
2023-01-13T11:47:12.757Z,7.73
2023-01-13T11:49:39.973Z,10.80
2023-01-13T11:52:10.165Z,6.27
2023-01-13T11:54:56.116Z,7.90
2023-01-13T11:57:37.129Z,9.10
2023-01-13T12:00:04.316Z,5.90
2023-01-13T12:02:34.536Z,7.00
2023-01-13T12:05:11.281Z,4.73
2023-01-13T12:07:45.039Z,10.00
2023-01-13T12:10:14.943Z,7.50
2023-01-13T12:13:04.260Z,9.53
2023-01-13T12:15:31.432Z,8.27
2023-01-13T12:18:17.134Z,7.97
2023-01-13T12:20:48.450Z,6.97
2023-01-13T12:23:25.392Z,8.73
2023-01-13T12:25:55.311Z,7.77
2023-01-13T12:28:29.329Z,7.33
2023-01-13T12:31:00.799Z,7.67
2023-01-13T12:33:45.805Z,8.57
2023-01-13T12:36:17.736Z,5.37
2023-01-13T12:38:44.817Z,7.23
2023-01-13T12:41:31.363Z,8.97
2023-01-13T12:44:17.418Z,8.27
2023-01-13T12:46:45.999Z,8.13
2023-01-13T12:49:28.632Z,9.27
2023-01-13T12:51:55.829Z,8.70
2023-01-13T12:54:38.415Z,8.27
2023-01-13T12:57:17.826Z,11.80
2023-01-13T12:59:49.124Z,11.07
2023-01-13T13:02:17.895Z,8.67
2023-01-13T13:04:47.706Z,10.30
2023-01-13T13:07:23.433Z,10.67
2023-01-13T13:09:53.413Z,10.77
2023-01-13T13:12:50.945Z,9.10
2023-01-13T13:15:25.324Z,13.33
2023-01-13T13:18:11.161Z,8.60
2023-01-13T13:20:57.164Z,8.63
2023-01-13T13:23:35.419Z,7.63
2023-01-13T13:26:11.909Z,8.60
2023-01-13T13:28:42.675Z,10.40
2023-01-13T13:31:20.100Z,10.87
2023-01-13T13:33:50.279Z,11.23
2023-01-13T13:36:55.772Z,8.67
2023-01-13T13:39:46.595Z,7.83
2023-01-13T13:42:32.190Z,8.77
2023-01-13T13:45:19.276Z,7.13
2023-01-13T13:47:46.451Z,7.13
2023-01-13T13:50:15.391Z,13.57
2023-01-13T13:52:45.826Z,6.63
2023-01-13T13:55:21.155Z,5.43
2023-01-13T13:57:52.737Z,8.73
2023-01-13T14:00:23.158Z,10.43
2023-01-13T14:03:02.432Z,10.13
2023-01-13T14:05:36.335Z,9.93
2023-01-13T14:08:03.474Z,7.10
2023-01-13T14:10:32.116Z,10.57
2023-01-13T14:13:00.702Z,13.13
2023-01-13T14:15:33.047Z,16.00
2023-01-13T14:18:02.358Z,8.53
2023-01-13T14:20:29.703Z,12.70
2023-01-13T14:23:01.624Z,11.83
2023-01-13T14:25:42.313Z,9.23
2023-01-13T14:28:24.774Z,8.53
2023-01-13T14:30:52.513Z,13.33
2023-01-13T14:33:22.904Z,8.70
2023-01-13T14:36:05.436Z,11.03
2023-01-13T14:38:32.587Z,9.67
2023-01-13T14:41:10.045Z,11.70
2023-01-13T14:43:42.884Z,9.93
2023-01-13T14:46:10.187Z,10.03
2023-01-13T14:48:37.698Z,11.27
2023-01-13T14:51:06.635Z,12.60
2023-01-13T14:53:43.297Z,9.73
2023-01-13T14:56:31.114Z,14.20
2023-01-13T14:59:02.582Z,10.67
2023-01-13T15:01:36.596Z,10.17
2023-01-13T15:04:16.782Z,10.07
2023-01-13T15:06:46.964Z,11.13
2023-01-13T15:09:14.342Z,12.23
2023-01-13T15:11:41.566Z,10.00
2023-01-13T15:14:11.088Z,9.17
2023-01-13T15:16:38.196Z,10.83
2023-01-13T15:19:05.400Z,11.27
2023-01-13T15:21:32.530Z,12.63
2023-01-13T15:23:59.996Z,10.10
2023-01-13T15:26:28.260Z,13.90
2023-01-13T15:28:56.557Z,13.00
2023-01-13T15:31:23.933Z,11.93
2023-01-13T15:33:51.144Z,8.60
2023-01-13T15:36:20.112Z,12.13
2023-01-13T15:38:47.235Z,9.00
2023-01-13T15:41:14.360Z,9.10
2023-01-13T15:44:00.210Z,11.53
2023-01-13T15:46:39.881Z,10.00
2023-01-13T15:49:09.857Z,9.50
2023-01-13T15:51:38.849Z,8.10
2023-01-13T15:54:05.971Z,8.73
2023-01-13T15:56:36.256Z,13.63
2023-01-13T15:59:04.427Z,13.10
2023-01-13T16:01:31.756Z,10.00
2023-01-13T16:03:58.956Z,10.50
2023-01-13T16:06:30.040Z,14.97
2023-01-13T16:08:57.162Z,6.47
2023-01-13T16:11:24.310Z,12.07
2023-01-13T16:13:51.494Z,12.10
2023-01-13T16:16:23.297Z,7.60
2023-01-13T16:18:51.075Z,8.90
2023-01-13T16:21:21.810Z,10.43
2023-01-13T16:23:49.660Z,7.40
2023-01-13T16:26:27.043Z,10.17
2023-01-13T16:28:55.176Z,11.40
2023-01-13T16:31:31.880Z,18.37
2023-01-13T16:34:00.128Z,6.83
2023-01-13T16:36:27.640Z,7.80
2023-01-13T16:38:55.349Z,12.13
2023-01-13T16:41:24.879Z,8.73
2023-01-13T16:43:52.113Z,13.63
2023-01-13T16:46:19.242Z,11.70
2023-01-13T16:48:46.734Z,11.37
2023-01-13T16:51:13.975Z,9.17
2023-01-13T16:53:41.238Z,9.03
2023-01-13T16:56:17.137Z,10.50
2023-01-13T16:58:44.317Z,7.87
2023-01-13T17:01:34.807Z,8.40
2023-01-13T17:04:02.805Z,7.73
2023-01-13T17:06:33.316Z,11.17
2023-01-13T17:09:01.021Z,9.43
2023-01-13T17:11:28.134Z,11.57
2023-01-13T17:13:55.232Z,15.47
2023-01-13T17:16:24.340Z,12.17
2023-01-13T17:18:51.580Z,11.40
2023-01-13T17:21:19.122Z,10.97
2023-01-13T17:23:46.332Z,8.67
2023-01-13T17:26:32.052Z,14.80
2023-01-13T17:29:00.433Z,9.87
2023-01-13T17:31:27.803Z,10.80
2023-01-13T17:33:54.934Z,11.60
2023-01-13T17:36:23.722Z,10.30
2023-01-13T17:38:51.890Z,14.50
2023-01-13T17:41:19.055Z,11.47
2023-01-13T17:43:46.179Z,12.47
2023-01-13T17:46:14.121Z,11.03
2023-01-13T17:48:41.229Z,10.23
2023-01-13T17:51:10.460Z,12.93
2023-01-13T17:53:40.772Z,13.23
2023-01-13T17:56:09.603Z,13.37
2023-01-13T17:58:37.357Z,16.70
2023-01-13T18:01:08.586Z,6.87
2023-01-13T18:03:35.827Z,11.67
2023-01-13T18:06:04.285Z,14.53
2023-01-13T18:08:31.417Z,14.03
2023-01-13T18:10:59.315Z,10.90
2023-01-13T18:13:26.561Z,13.10
2023-01-13T18:16:01.957Z,10.23
2023-01-13T18:18:29.120Z,10.87
2023-01-13T18:21:15.035Z,13.13
2023-01-13T18:24:01.019Z,10.53
2023-01-13T18:26:47.206Z,10.00
2023-01-13T18:29:14.341Z,11.00
2023-01-13T18:31:41.496Z,15.53
2023-01-13T18:34:08.646Z,8.93
2023-01-13T18:36:35.755Z,14.47
2023-01-13T18:39:03.508Z,10.87
2023-01-13T18:41:49.352Z,11.23
2023-01-13T18:44:16.521Z,15.23
2023-01-13T18:46:43.621Z,19.43
2023-01-13T18:49:10.866Z,10.33
2023-01-13T18:51:38.796Z,11.90
2023-01-13T18:54:06.175Z,12.53
2023-01-13T18:56:33.312Z,13.93
2023-01-13T18:59:01.855Z,18.07
2023-01-13T19:01:29.846Z,11.93
2023-01-13T19:03:57.631Z,11.93
2023-01-13T19:06:27.247Z,18.87
2023-01-13T19:08:55.089Z,12.50
2023-01-13T19:11:23.131Z,14.83
2023-01-13T19:13:50.948Z,10.60
2023-01-13T19:16:19.015Z,13.80
2023-01-13T19:18:46.180Z,14.47
2023-01-13T19:21:13.338Z,13.33
2023-01-13T19:23:40.472Z,12.77
2023-01-13T19:26:09.334Z,16.73
2023-01-13T19:28:36.904Z,10.70
2023-01-13T19:31:05.156Z,11.73
2023-01-13T19:33:34.166Z,15.40
2023-01-13T19:36:01.420Z,16.87
2023-01-13T19:38:28.727Z,17.47
2023-01-13T19:40:56.539Z,12.03
2023-01-13T19:43:42.558Z,11.63
2023-01-13T19:46:09.982Z,16.67
2023-01-13T19:48:37.175Z,13.57
2023-01-13T19:51:04.542Z,16.20
2023-01-13T19:53:32.104Z,9.83
2023-01-13T19:55:59.308Z,10.70
2023-01-13T19:58:26.733Z,13.87
2023-01-13T20:00:54.517Z,15.50
2023-01-13T20:03:24.258Z,12.43
2023-01-13T20:05:52.016Z,10.50
2023-01-13T20:08:20.199Z,9.93
2023-01-13T20:10:48.147Z,10.97
2023-01-13T20:13:15.716Z,9.93
2023-01-13T20:15:43.972Z,16.20
2023-01-13T20:18:12.099Z,10.30
2023-01-13T20:20:39.306Z,14.20
2023-01-13T20:23:06.417Z,13.20
2023-01-13T20:25:33.545Z,13.73
2023-01-13T20:28:02.212Z,11.83
2023-01-13T20:30:29.363Z,16.20
2023-01-13T20:32:56.557Z,12.67
2023-01-13T20:35:27.672Z,12.60
2023-01-13T20:37:54.783Z,12.10
2023-01-13T20:40:21.913Z,12.63
2023-01-13T20:42:49.059Z,11.13
2023-01-13T20:45:20.575Z,14.70
2023-01-13T20:47:47.802Z,12.73
2023-01-13T20:50:15.854Z,10.20
2023-01-13T20:52:43.020Z,16.00
2023-01-13T20:55:10.330Z,15.97
2023-01-13T20:57:37.554Z,16.00
2023-01-13T21:00:05.670Z,12.20
2023-01-13T21:02:32.959Z,12.63
2023-01-13T21:05:00.179Z,12.53
2023-01-13T21:07:28.254Z,10.67
2023-01-13T21:09:57.323Z,11.17
2023-01-13T21:12:43.288Z,10.43
2023-01-13T21:15:18.222Z,14.40
2023-01-13T21:18:04.631Z,12.47
2023-01-13T21:20:33.558Z,17.50
2023-01-13T21:23:01.383Z,14.20
2023-01-13T21:25:28.643Z,11.27
2023-01-13T21:27:56.307Z,9.17
2023-01-13T21:30:23.443Z,14.97
2023-01-13T21:32:50.587Z,12.37
2023-01-13T21:35:17.789Z,10.63
2023-01-13T21:37:44.988Z,14.10
2023-01-13T21:40:13.494Z,15.00
2023-01-13T21:42:59.188Z,17.10
2023-01-13T21:45:45.252Z,16.93
2023-01-13T21:48:12.505Z,15.83
2023-01-13T21:50:39.673Z,22.07
2023-01-13T21:53:08.021Z,15.30
2023-01-13T21:55:36.640Z,13.03
2023-01-13T21:58:12.346Z,13.73
2023-01-13T22:00:40.181Z,17.03
2023-01-13T22:03:08.266Z,13.73
2023-01-13T22:05:36.023Z,12.00
2023-01-13T22:08:03.266Z,11.30
2023-01-13T22:10:31.631Z,13.27
2023-01-13T22:13:00.160Z,13.47
2023-01-13T22:15:29.578Z,11.80
2023-01-13T22:17:57.569Z,10.57
2023-01-13T22:20:25.083Z,13.40
2023-01-13T22:22:52.202Z,18.13
2023-01-13T22:25:20.281Z,15.37
2023-01-13T22:27:48.387Z,14.97
2023-01-13T22:30:18.146Z,9.43
2023-01-13T22:32:46.419Z,15.80
2023-01-13T22:35:14.169Z,10.40
2023-01-13T22:37:41.627Z,13.53
2023-01-13T22:40:09.838Z,14.23
2023-01-13T22:42:38.216Z,12.70
2023-01-13T22:45:06.242Z,16.13
2023-01-13T22:47:33.708Z,16.10
2023-01-13T22:50:00.868Z,14.90
2023-01-13T22:52:28.572Z,14.20
2023-01-13T22:54:55.729Z,12.87
2023-01-13T22:57:24.001Z,14.17
2023-01-13T22:59:51.285Z,10.80
2023-01-13T23:02:18.433Z,17.30
2023-01-13T23:04:45.610Z,16.13
2023-01-13T23:07:12.819Z,13.17
2023-01-13T23:09:39.948Z,20.87
2023-01-13T23:12:07.159Z,18.27
2023-01-13T23:14:34.305Z,11.20
2023-01-13T23:17:01.503Z,10.80
2023-01-13T23:19:28.850Z,14.17
2023-01-13T23:21:55.981Z,15.47
2023-01-13T23:24:25.977Z,15.33
2023-01-13T23:26:53.300Z,17.03
2023-01-13T23:29:20.492Z,22.10
2023-01-13T23:31:47.923Z,22.57
2023-01-13T23:34:15.547Z,21.23
2023-01-13T23:36:43.815Z,11.90
2023-01-13T23:39:10.942Z,16.23
2023-01-13T23:41:38.146Z,17.20
2023-01-13T23:44:06.904Z,14.43
2023-01-13T23:46:35.264Z,20.43
2023-01-13T23:49:03.488Z,19.80
2023-01-13T23:51:30.692Z,19.73
2023-01-13T23:53:59.083Z,17.03
2023-01-13T23:56:28.254Z,18.60
2023-01-13T23:58:55.715Z,19.20
